sensor_id;sensor_type;location;lat;lon;timestamp;P1;P2;P0
73305;PMS5003;61530;51.158;0.880;2023-05-02T00:00:47;15;15;9
73305;PMS5003;61530;51.158;0.880;2023-05-02T00:01:50;29;27;25
73305;PMS5003;61530;51.158;0.880;2023-05-02T00:02:56;33;33;30
73305;PMS5003;61530;51.158;0.880;2023-05-02T00:03:59;13;13;8
73305;PMS5003;61530;51.158;0.880;2023-05-02T00:05:03;25;25;20
73305;PMS5003;61530;51.158;0.880;2023-05-02T00:06:06;30;28;25
73305;PMS5003;61530;51.158;0.880;2023-05-02T00:07:12;14;12;9
73305;PMS5003;61530;51.158;0.880;2023-05-02T00:08:15;24;21;18
73305;PMS5003;61530;51.158;0.880;2023-05-02T00:09:19;30;30;25
73305;PMS5003;61530;51.158;0.880;2023-05-02T00:10:22;25;25;21
73305;PMS5003;61530;51.158;0.880;2023-05-02T00:11:28;34;34;31
73305;PMS5003;61530;51.158;0.880;2023-05-02T00:12:31;10;10;7
73305;PMS5003;61530;51.158;0.880;2023-05-02T00:13:35;11;10;7
73305;PMS5003;61530;51.158;0.880;2023-05-02T00:14:38;11;10;7
73305;PMS5003;61530;51.158;0.880;2023-05-02T00:15:44;11;11;7
73305;PMS5003;61530;51.158;0.880;2023-05-02T00:16:47;8;7;5
73305;PMS5003;61530;51.158;0.880;2023-05-02T00:17:51;11;11;6
73305;PMS5003;61530;51.158;0.880;2023-05-02T00:18:54;12;7;4
73305;PMS5003;61530;51.158;0.880;2023-05-02T00:20:00;10;10;8
73305;PMS5003;61530;51.158;0.880;2023-05-02T00:21:03;9;9;7
73305;PMS5003;61530;51.158;0.880;2023-05-02T00:22:07;14;13;9
73305;PMS5003;61530;51.158;0.880;2023-05-02T00:23:10;10;9;6
73305;PMS5003;61530;51.158;0.880;2023-05-02T00:24:16;11;10;7
73305;PMS5003;61530;51.158;0.880;2023-05-02T00:25:19;11;11;6
73305;PMS5003;61530;51.158;0.880;2023-05-02T00:26:23;10;10;7
73305;PMS5003;61530;51.158;0.880;2023-05-02T00:27:26;11;9;6
73305;PMS5003;61530;51.158;0.880;2023-05-02T00:28:32;10;10;7
73305;PMS5003;61530;51.158;0.880;2023-05-02T00:29:35;13;11;7
73305;PMS5003;61530;51.158;0.880;2023-05-02T00:30:41;13;13;6
73305;PMS5003;61530;51.158;0.880;2023-05-02T00:31:42;13;12;8
73305;PMS5003;61530;51.158;0.880;2023-05-02T00:32:48;15;14;9
73305;PMS5003;61530;51.158;0.880;2023-05-02T00:33:51;16;16;9
73305;PMS5003;61530;51.158;0.880;2023-05-02T00:34:55;16;15;9
73305;PMS5003;61530;51.158;0.880;2023-05-02T00:35:58;15;15;12
73305;PMS5003;61530;51.158;0.880;2023-05-02T00:37:04;15;14;9
73305;PMS5003;61530;51.158;0.880;2023-05-02T00:38:07;23;19;13
73305;PMS5003;61530;51.158;0.880;2023-05-02T00:39:11;17;16;11
73305;PMS5003;61530;51.158;0.880;2023-05-02T00:40:14;22;19;13
73305;PMS5003;61530;51.158;0.880;2023-05-02T00:41:20;31;28;20
73305;PMS5003;61530;51.158;0.880;2023-05-02T00:42:23;17;17;10
73305;PMS5003;61530;51.158;0.880;2023-05-02T00:43:29;20;18;9
73305;PMS5003;61530;51.158;0.880;2023-05-02T00:44:30;12;12;7
73305;PMS5003;61530;51.158;0.880;2023-05-02T00:45:36;13;13;8
73305;PMS5003;61530;51.158;0.880;2023-05-02T00:46:39;18;16;9
73305;PMS5003;61530;51.158;0.880;2023-05-02T00:47:43;16;16;6
73305;PMS5003;61530;51.158;0.880;2023-05-02T00:48:46;18;17;12
73305;PMS5003;61530;51.158;0.880;2023-05-02T00:49:52;15;15;11
73305;PMS5003;61530;51.158;0.880;2023-05-02T00:50:55;15;15;9
73305;PMS5003;61530;51.158;0.880;2023-05-02T00:51:59;18;16;12
73305;PMS5003;61530;51.158;0.880;2023-05-02T00:53:03;24;24;17
73305;PMS5003;61530;51.158;0.880;2023-05-02T00:54:08;26;26;17
73305;PMS5003;61530;51.158;0.880;2023-05-02T00:55:11;31;29;26
73305;PMS5003;61530;51.158;0.880;2023-05-02T00:56:15;21;19;13
73305;PMS5003;61530;51.158;0.880;2023-05-02T00:57:18;18;17;13
73305;PMS5003;61530;51.158;0.880;2023-05-02T00:58:24;15;14;10
73305;PMS5003;61530;51.158;0.880;2023-05-02T00:59:27;17;15;10
73305;PMS5003;61530;51.158;0.880;2023-05-02T01:00:45;18;18;10
73305;PMS5003;61530;51.158;0.880;2023-05-02T01:01:38;18;18;13
73305;PMS5003;61530;51.158;0.880;2023-05-02T01:02:42;26;26;19
73305;PMS5003;61530;51.158;0.880;2023-05-02T01:03:46;23;21;13
73305;PMS5003;61530;51.158;0.880;2023-05-02T01:04:49;15;13;9
73305;PMS5003;61530;51.158;0.880;2023-05-02T01:05:52;18;17;12
73305;PMS5003;61530;51.158;0.880;2023-05-02T01:07:02;17;15;11
73305;PMS5003;61530;51.158;0.880;2023-05-02T01:08:02;14;14;8
73305;PMS5003;61530;51.158;0.880;2023-05-02T01:09:06;15;;10
73305;PMS5003;61530;51.158;0.880;2023-05-02T01:10:08;13;11;7
73305;PMS5003;61530;51.158;0.880;2023-05-02T01:11:13;9;9;6
73305;PMS5003;61530;51.158;0.880;2023-05-02T01:12:18;12;11;7
73305;PMS5003;61530;51.158;0.880;2023-05-02T01:13:20;13;11;8
73305;PMS5003;61530;51.158;0.880;2023-05-02T01:14:22;11;11;7
73305;PMS5003;61530;51.158;0.880;2023-05-02T01:15:28;11;11;7
73305;PMS5003;61530;51.158;0.880;2023-05-02T01:16:31;14;13;8
73305;PMS5003;61530;51.158;0.880;2023-05-02T01:17:36;12;12;7
73305;PMS5003;61530;51.158;0.880;2023-05-02T01:18:39;11;9;6
73305;PMS5003;61530;51.158;0.880;2023-05-02T01:19:46;12;10;7
73305;PMS5003;61530;51.158;0.880;2023-05-02T01:20:49;14;14;9
73305;PMS5003;61530;51.158;0.880;2023-05-02T01:21:51;10;9;6
73305;PMS5003;61530;51.158;0.880;2023-05-02T01:22:55;13;12;8
73305;PMS5003;61530;51.158;0.880;2023-05-02T01:24:01;10;10;6
73305;PMS5003;61530;51.158;0.880;2023-05-02T01:25:06;10;8;5
73305;PMS5003;61530;51.158;0.880;2023-05-02T01:26:12;12;12;7
73305;PMS5003;61530;51.158;0.880;2023-05-02T01:27:13;9;9;7
73305;PMS5003;61530;51.158;0.880;2023-05-02T01:28:18;11;11;6
73305;PMS5003;61530;51.158;0.880;2023-05-02T01:29:19;12;12;7
73305;PMS5003;61530;51.158;0.880;2023-05-02T01:30:23;12;12;8
73305;PMS5003;61530;51.158;0.880;2023-05-02T01:31:27;13;11;6
73305;PMS5003;61530;51.158;0.880;2023-05-02T01:32:32;9;9;6
73305;PMS5003;61530;51.158;0.880;2023-05-02T01:33:35;10;9;5
73305;PMS5003;61530;51.158;0.880;2023-05-02T01:34:39;12;12;8
73305;PMS5003;61530;51.158;0.880;2023-05-02T01:35:42;12;11;7
73305;PMS5003;61530;51.158;0.880;2023-05-02T01:36:49;10;10;7
73305;PMS5003;61530;51.158;0.880;2023-05-02T01:37:51;13;13;7
73305;PMS5003;61530;51.158;0.880;2023-05-02T01:38:55;12;12;7
73305;PMS5003;61530;51.158;0.880;2023-05-02T01:39:58;14;13;8
73305;PMS5003;61530;51.158;0.880;2023-05-02T01:41:04;10;10;6
73305;PMS5003;61530;51.158;0.880;2023-05-02T01:42:07;12;11;7
73305;PMS5003;61530;51.158;0.880;2023-05-02T01:43:11;10;10;6
73305;PMS5003;61530;51.158;0.880;2023-05-02T01:44:14;11;10;6
73305;PMS5003;61530;51.158;0.880;2023-05-02T01:45:20;9;9;6
73305;PMS5003;61530;51.158;0.880;2023-05-02T01:46:24;12;11;7
73305;PMS5003;61530;51.158;0.880;2023-05-02T01:47:27;9;9;6
73305;PMS5003;61530;51.158;0.880;2023-05-02T01:48:30;10;10;7
73305;PMS5003;61530;51.158;0.880;2023-05-02T01:49:36;10;10;7
73305;PMS5003;61530;51.158;0.880;2023-05-02T01:50:39;9;9;6
73305;PMS5003;61530;51.158;0.880;2023-05-02T01:51:43;13;12;7
73305;PMS5003;61530;51.158;0.880;2023-05-02T01:52:47;10;9;6
73305;PMS5003;61530;51.158;0.880;2023-05-02T01:53:52;14;12;7
73305;PMS5003;61530;51.158;0.880;2023-05-02T01:54:55;14;13;9
73305;PMS5003;61530;51.158;0.880;2023-05-02T01:55:59;18;16;8
73305;PMS5003;61530;51.158;0.880;2023-05-02T01:57:04;9;9;7
73305;PMS5003;61530;51.158;0.880;2023-05-02T01:58:08;12;11;7
73305;PMS5003;61530;51.158;0.880;2023-05-02T01:59:12;16;15;9
73305;PMS5003;61530;51.158;0.880;2023-05-02T02:00:15;14;14;10
73305;PMS5003;61530;51.158;0.880;2023-05-02T02:01:18;12;12;8
73305;PMS5003;61530;51.158;0.880;2023-05-02T02:02:24;16;14;9
73305;PMS5003;61530;51.158;0.880;2023-05-02T02:03:27;13;13;9
73305;PMS5003;61530;51.158;0.880;2023-05-02T02:04:31;14;12;9
73305;PMS5003;61530;51.158;0.880;2023-05-02T02:05:34;15;12;8
73305;PMS5003;61530;51.158;0.880;2023-05-02T02:06:41;14;14;10
73305;PMS5003;61530;51.158;0.880;2023-05-02T02:07:43;14;14;9
73305;PMS5003;61530;51.158;0.880;2023-05-02T02:08:47;15;15;12
73305;PMS5003;61530;51.158;0.880;2023-05-02T02:09:50;20;15;12
73305;PMS5003;61530;51.158;0.880;2023-05-02T02:10:56;18;18;13
73305;PMS5003;61530;51.158;0.880;2023-05-02T02:12:01;16;16;12
73305;PMS5003;61530;51.158;0.880;2023-05-02T02:13:05;19;19;15
73305;PMS5003;61530;51.158;0.880;2023-05-02T02:14:06;12;12;10
73305;PMS5003;61530;51.158;0.880;2023-05-02T02:15:14;18;18;15
73305;PMS5003;61530;51.158;0.880;2023-05-02T02:16:17;22;20;16
73305;PMS5003;61530;51.158;0.880;2023-05-02T02:17:21;19;18;15
73305;PMS5003;61530;51.158;0.880;2023-05-02T02:18:22;19;18;12
73305;PMS5003;61530;51.158;0.880;2023-05-02T02:19:28;21;20;17
73305;PMS5003;61530;51.158;0.880;2023-05-02T02:20:31;26;25;21
73305;PMS5003;61530;51.158;0.880;2023-05-02T02:21:35;27;26;21
73305;PMS5003;61530;51.158;0.880;2023-05-02T02:22:39;14;14;10
73305;PMS5003;61530;51.158;0.880;2023-05-02T02:23:44;23;22;17
73305;PMS5003;61530;51.158;0.880;2023-05-02T02:24:47;25;25;21
73305;PMS5003;61530;51.158;0.880;2023-05-02T02:25:51;18;14;10
73305;PMS5003;61530;51.158;0.880;2023-05-02T02:26:54;14;11;8
73305;PMS5003;61530;51.158;0.880;2023-05-02T02:28:00;17;15;10
73305;PMS5003;61530;51.158;0.880;2023-05-02T02:29:03;14;14;10
73305;PMS5003;61530;51.158;0.880;2023-05-02T02:30:07;24;22;17
73305;PMS5003;61530;51.158;0.880;2023-05-02T02:31:10;21;19;11
73305;PMS5003;61530;51.158;0.880;2023-05-02T02:32:16;22;21;17
73305;PMS5003;61530;51.158;0.880;2023-05-02T02:33:19;14;13;9
73305;PMS5003;61530;51.158;0.880;2023-05-02T02:34:23;16;12;9
73305;PMS5003;61530;51.158;0.880;2023-05-02T02:35:28;16;13;9
73305;PMS5003;61530;51.158;0.880;2023-05-02T02:36:33;14;12;6
73305;PMS5003;61530;51.158;0.880;2023-05-02T02:37:38;12;11;7
73305;PMS5003;61530;51.158;0.880;2023-05-02T02:38:41;11;11;7
73305;PMS5003;61530;51.158;0.880;2023-05-02T02:39:45;33;33;25
73305;PMS5003;61530;51.158;0.880;2023-05-02T02:40:50;29;27;22
73305;PMS5003;61530;51.158;0.880;2023-05-02T02:41:54;13;12;8
73305;PMS5003;61530;51.158;0.880;2023-05-02T02:42:59;10;10;7
73305;PMS5003;61530;51.158;0.880;2023-05-02T02:43:59;11;11;6
73305;PMS5003;61530;51.158;0.880;2023-05-02T02:45:06;13;13;8
73305;PMS5003;61530;51.158;0.880;2023-05-02T02:46:12;18;17;9
73305;PMS5003;61530;51.158;0.880;2023-05-02T02:47:14;17;15;8
73305;PMS5003;61530;51.158;0.880;2023-05-02T02:48:17;13;12;7
73305;PMS5003;61530;51.158;0.880;2023-05-02T02:49:22;30;28;21
73305;PMS5003;61530;51.158;0.880;2023-05-02T02:50:24;22;22;17
73305;PMS5003;61530;51.158;0.880;2023-05-02T02:51:28;13;11;7
73305;PMS5003;61530;51.158;0.880;2023-05-02T02:52:32;22;22;14
73305;PMS5003;61530;51.158;0.880;2023-05-02T02:53:38;17;15;10
73305;PMS5003;61530;51.158;0.880;2023-05-02T02:54:40;13;13;10
73305;PMS5003;61530;51.158;0.880;2023-05-02T02:55:44;13;13;10
73305;PMS5003;61530;51.158;0.880;2023-05-02T02:56:47;14;11;7
73305;PMS5003;61530;51.158;0.880;2023-05-02T02:57:54;11;11;8
73305;PMS5003;61530;51.158;0.880;2023-05-02T02:58:56;21;18;10
73305;PMS5003;61530;51.158;0.880;2023-05-02T03:00:00;19;15;10
73305;PMS5003;61530;51.158;0.880;2023-05-02T03:01:03;23;22;11
73305;PMS5003;61530;51.158;0.880;2023-05-02T03:02:08;25;24;18
73305;PMS5003;61530;51.158;0.880;2023-05-02T03:03:11;25;25;16
73305;PMS5003;61530;51.158;0.880;2023-05-02T03:04:15;25;24;18
73305;PMS5003;61530;51.158;0.880;2023-05-02T03:05:18;36;32;26
73305;PMS5003;61530;51.158;0.880;2023-05-02T03:06:24;28;26;20
73305;PMS5003;61530;51.158;0.880;2023-05-02T03:07:27;33;33;26
73305;PMS5003;61530;51.158;0.880;2023-05-02T03:08:37;36;36;29
73305;PMS5003;61530;51.158;0.880;2023-05-02T03:09:42;26;23;18
73305;PMS5003;61530;51.158;0.880;2023-05-02T03:10:40;37;35;21
73305;PMS5003;61530;51.158;0.880;2023-05-02T03:11:43;27;24;15
73305;PMS5003;61530;51.158;0.880;2023-05-02T03:12:47;28;26;19
73305;PMS5003;61530;51.158;0.880;2023-05-02T03:13:50;32;30;20
73305;PMS5003;61530;51.158;0.880;2023-05-02T03:14:58;30;29;20
73305;PMS5003;61530;51.158;0.880;2023-05-02T03:16:11;29;28;22
73305;PMS5003;61530;51.158;0.880;2023-05-02T03:17:03;27;24;13
73305;PMS5003;61530;51.158;0.880;2023-05-02T03:18:06;22;20;12
73305;PMS5003;61530;51.158;0.880;2023-05-02T03:19:12;24;23;12
73305;PMS5003;61530;51.158;0.880;2023-05-02T03:20:15;22;20;12
73305;PMS5003;61530;51.158;0.880;2023-05-02T03:21:19;22;21;13
73305;PMS5003;61530;51.158;0.880;2023-05-02T03:22:22;26;23;13
73305;PMS5003;61530;51.158;0.880;2023-05-02T03:23:28;21;20;12
73305;PMS5003;61530;51.158;0.880;2023-05-02T03:32:09;21;19;12
73305;PMS5003;61530;51.158;0.880;2023-05-02T03:33:11;16;15;9
73305;PMS5003;61530;51.158;0.880;2023-05-02T03:34:15;19;18;10
73305;PMS5003;61530;51.158;0.880;2023-05-02T03:35:18;20;19;12
73305;PMS5003;61530;51.158;0.880;2023-05-02T03:36:24;18;18;11
73305;PMS5003;61530;51.158;0.880;2023-05-02T03:37:27;21;20;10
73305;PMS5003;61530;51.158;0.880;2023-05-02T03:38:31;15;15;11
73305;PMS5003;61530;51.158;0.880;2023-05-02T03:39:34;21;20;12
73305;PMS5003;61530;51.158;0.880;2023-05-02T03:40:40;19;14;9
73305;PMS5003;61530;51.158;0.880;2023-05-02T03:41:43;15;14;8
73305;PMS5003;61530;51.158;0.880;2023-05-02T03:42:47;21;19;9
73305;PMS5003;61530;51.158;0.880;2023-05-02T03:43:50;14;14;10
73305;PMS5003;61530;51.158;0.880;2023-05-02T03:44:56;21;20;9
73305;PMS5003;61530;51.158;0.880;2023-05-02T03:46:03;14;13;8
73305;PMS5003;61530;51.158;0.880;2023-05-02T03:47:03;15;15;9
73305;PMS5003;61530;51.158;0.880;2023-05-02T03:48:06;18;16;7
73305;PMS5003;61530;51.158;0.880;2023-05-02T03:49:12;16;14;10
73305;PMS5003;61530;51.158;0.880;2023-05-02T03:50:15;18;16;10
73305;PMS5003;61530;51.158;0.880;2023-05-02T03:51:19;13;13;9
73305;PMS5003;61530;51.158;0.880;2023-05-02T03:52:22;20;20;9
73305;PMS5003;61530;51.158;0.880;2023-05-02T03:53:28;15;13;9
73305;PMS5003;61530;51.158;0.880;2023-05-02T03:54:31;18;16;10
73305;PMS5003;61530;51.158;0.880;2023-05-02T03:55:38;21;18;12
73305;PMS5003;61530;51.158;0.880;2023-05-02T03:56:38;16;15;8
73305;PMS5003;61530;51.158;0.880;2023-05-02T03:57:44;15;15;9
73305;PMS5003;61530;51.158;0.880;2023-05-02T03:58:47;15;14;9
73305;PMS5003;61530;51.158;0.880;2023-05-02T03:59:51;20;15;10
73305;PMS5003;61530;51.158;0.880;2023-05-02T04:00:54;14;14;9
73305;PMS5003;61530;51.158;0.880;2023-05-02T04:02:00;15;15;10
73305;PMS5003;61530;51.158;0.880;2023-05-02T04:03:03;24;22;8
73305;PMS5003;61530;51.158;0.880;2023-05-02T04:04:07;26;22;12
73305;PMS5003;61530;51.158;0.880;2023-05-02T04:05:10;17;9;7
73305;PMS5003;61530;51.158;0.880;2023-05-02T04:06:16;14;14;11
73305;PMS5003;61530;51.158;0.880;2023-05-02T04:07:19;19;18;10
73305;PMS5003;61530;51.158;0.880;2023-05-02T04:08:23;21;20;11
73305;PMS5003;61530;51.158;0.880;2023-05-02T04:09:26;19;17;8
73305;PMS5003;61530;51.158;0.880;2023-05-02T04:10:32;18;15;10
73305;PMS5003;61530;51.158;0.880;2023-05-02T04:11:35;20;15;7
73305;PMS5003;61530;51.158;0.880;2023-05-02T04:12:39;20;19;8
73305;PMS5003;61530;51.158;0.880;2023-05-02T04:13:42;20;15;7
73305;PMS5003;61530;51.158;0.880;2023-05-02T04:14:48;19;16;10
73305;PMS5003;61530;51.158;0.880;2023-05-02T04:15:51;18;18;9
73305;PMS5003;61530;51.158;0.880;2023-05-02T04:16:55;15;13;9
73305;PMS5003;61530;51.158;0.880;2023-05-02T04:17:58;18;14;9
73305;PMS5003;61530;51.158;0.880;2023-05-02T04:19:04;21;19;10
73305;PMS5003;61530;51.158;0.880;2023-05-02T04:20:08;19;17;10
73305;PMS5003;61530;51.158;0.880;2023-05-02T04:21:11;12;12;8
73305;PMS5003;61530;51.158;0.880;2023-05-02T04:22:14;17;13;10
73305;PMS5003;61530;51.158;0.880;2023-05-02T04:23:20;15;13;9
73305;PMS5003;61530;51.158;0.880;2023-05-02T04:24:23;17;15;11
73305;PMS5003;61530;51.158;0.880;2023-05-02T04:25:27;23;23;15
73305;PMS5003;61530;51.158;0.880;2023-05-02T04:26:30;15;14;9
73305;PMS5003;61530;51.158;0.880;2023-05-02T04:27:36;17;17;8
73305;PMS5003;61530;51.158;0.880;2023-05-02T04:28:39;16;14;9
73305;PMS5003;61530;51.158;0.880;2023-05-02T04:29:43;15;14;7
73305;PMS5003;61530;51.158;0.880;2023-05-02T04:30:46;19;18;11
73305;PMS5003;61530;51.158;0.880;2023-05-02T04:31:52;20;20;11
73305;PMS5003;61530;51.158;0.880;2023-05-02T04:32:55;17;17;10
73305;PMS5003;61530;51.158;0.880;2023-05-02T04:33:59;20;16;12
73305;PMS5003;61530;51.158;0.880;2023-05-02T04:35:03;20;19;13
73305;PMS5003;61530;51.158;0.880;2023-05-02T04:36:08;19;14;7
73305;PMS5003;61530;51.158;0.880;2023-05-02T04:37:11;14;14;10
73305;PMS5003;61530;51.158;0.880;2023-05-02T04:38:15;13;13;8
73305;PMS5003;61530;51.158;0.880;2023-05-02T04:39:18;14;13;9
73305;PMS5003;61530;51.158;0.880;2023-05-02T04:40:24;18;14;11
73305;PMS5003;61530;51.158;0.880;2023-05-02T04:41:27;14;13;9
73305;PMS5003;61530;51.158;0.880;2023-05-02T04:42:31;18;15;12
73305;PMS5003;61530;51.158;0.880;2023-05-02T04:43:34;15;14;9
73305;PMS5003;61530;51.158;0.880;2023-05-02T04:44:40;13;12;9
73305;PMS5003;61530;51.158;0.880;2023-05-02T04:45:43;14;13;9
73305;PMS5003;61530;51.158;0.880;2023-05-02T04:46:47;18;13;11
73305;PMS5003;61530;51.158;0.880;2023-05-02T04:47:50;14;14;9
73305;PMS5003;61530;51.158;0.880;2023-05-02T04:48:56;18;16;7
73305;PMS5003;61530;51.158;0.880;2023-05-02T04:49:59;12;12;7
73305;PMS5003;61530;51.158;0.880;2023-05-02T04:51:03;10;10;7
73305;PMS5003;61530;51.158;0.880;2023-05-02T04:52:06;13;11;6
73305;PMS5003;61530;51.158;0.880;2023-05-02T04:53:12;13;11;6
73305;PMS5003;61530;51.158;0.880;2023-05-02T04:54:15;12;12;7
73305;PMS5003;61530;51.158;0.880;2023-05-02T04:55:19;10;10;7
73305;PMS5003;61530;51.158;0.880;2023-05-02T04:56:22;11;10;7
73305;PMS5003;61530;51.158;0.880;2023-05-02T04:57:28;9;9;6
73305;PMS5003;61530;51.158;0.880;2023-05-02T04:58:31;10;10;7
73305;PMS5003;61530;51.158;0.880;2023-05-02T04:59:35;13;12;7
73305;PMS5003;61530;51.158;0.880;2023-05-02T05:00:38;10;10;4
73305;PMS5003;61530;51.158;0.880;2023-05-02T05:01:44;12;10;6
73305;PMS5003;61530;51.158;0.880;2023-05-02T05:02:47;6;6;4
73305;PMS5003;61530;51.158;0.880;2023-05-02T05:03:51;9;8;6
73305;PMS5003;61530;51.158;0.880;2023-05-02T05:04:54;7;7;5
73305;PMS5003;61530;51.158;0.880;2023-05-02T05:06:00;10;8;5
73305;PMS5003;61530;51.158;0.880;2023-05-02T05:07:03;7;7;4
73305;PMS5003;61530;51.158;0.880;2023-05-02T05:08:07;11;9;6
73305;PMS5003;61530;51.158;0.880;2023-05-02T05:09:10;10;7;4
73305;PMS5003;61530;51.158;0.880;2023-05-02T05:10:16;9;8;5
73305;PMS5003;61530;51.158;0.880;2023-05-02T05:11:19;8;8;5
73305;PMS5003;61530;51.158;0.880;2023-05-02T05:12:23;11;8;6
73305;PMS5003;61530;51.158;0.880;2023-05-02T05:13:26;10;10;5
73305;PMS5003;61530;51.158;0.880;2023-05-02T05:14:32;11;7;5
73305;PMS5003;61530;51.158;0.880;2023-05-02T05:15:35;9;7;5
73305;PMS5003;61530;51.158;0.880;2023-05-02T05:16:39;11;8;5
73305;PMS5003;61530;51.158;0.880;2023-05-02T05:17:42;6;6;4
73305;PMS5003;61530;51.158;0.880;2023-05-02T05:18:48;9;7;4
73305;PMS5003;61530;51.158;0.880;2023-05-02T05:19:52;12;9;6
73305;PMS5003;61530;51.158;0.880;2023-05-02T05:20:55;7;7;5
73305;PMS5003;61530;51.158;0.880;2023-05-02T05:21:58;8;8;5
73305;PMS5003;61530;51.158;0.880;2023-05-02T05:23:04;7;7;4
73305;PMS5003;61530;51.158;0.880;2023-05-02T05:24:07;13;10;5
73305;PMS5003;61530;51.158;0.880;2023-05-02T05:25:11;8;7;5
73305;PMS5003;61530;51.158;0.880;2023-05-02T05:26:15;6;6;4
73305;PMS5003;61530;51.158;0.880;2023-05-02T05:27:20;7;7;4
73305;PMS5003;61530;51.158;0.880;2023-05-02T05:28:23;7;7;4
73305;PMS5003;61530;51.158;0.880;2023-05-02T05:29:27;8;7;5
73305;PMS5003;61530;51.158;0.880;2023-05-02T05:30:30;10;9;5
73305;PMS5003;61530;51.158;0.880;2023-05-02T05:31:36;9;8;6
73305;PMS5003;61530;51.158;0.880;2023-05-02T05:32:39;8;6;4
73305;PMS5003;61530;51.158;0.880;2023-05-02T05:33:43;6;6;4
73305;PMS5003;61530;51.158;0.880;2023-05-02T05:34:50;7;7;5
73305;PMS5003;61530;51.158;0.880;2023-05-02T05:35:52;9;7;5
73305;PMS5003;61530;51.158;0.880;2023-05-02T05:36:55;9;9;5
73305;PMS5003;61530;51.158;0.880;2023-05-02T05:37:59;8;7;5
73305;PMS5003;61530;51.158;0.880;2023-05-02T05:39:02;7;7;5
73305;PMS5003;61530;51.158;0.880;2023-05-02T05:40:08;7;7;5
73305;PMS5003;61530;51.158;0.880;2023-05-02T05:41:11;9;6;4
73305;PMS5003;61530;51.158;0.880;2023-05-02T05:42:15;8;7;5
73305;PMS5003;61530;51.158;0.880;2023-05-02T05:43:18;8;8;5
73305;PMS5003;61530;51.158;0.880;2023-05-02T05:44:24;8;7;6
73305;PMS5003;61530;51.158;0.880;2023-05-02T05:45:27;9;8;5
73305;PMS5003;61530;51.158;0.880;2023-05-02T05:46:31;10;8;6
73305;PMS5003;61530;51.158;0.880;2023-05-02T05:47:34;6;6;5
73305;PMS5003;61530;51.158;0.880;2023-05-02T05:48:40;8;8;5
73305;PMS5003;61530;51.158;0.880;2023-05-02T05:49:43;9;7;5
73305;PMS5003;61530;51.158;0.880;2023-05-02T05:50:47;14;7;5
73305;PMS5003;61530;51.158;0.880;2023-05-02T05:51:50;8;8;6
73305;PMS5003;61530;51.158;0.880;2023-05-02T05:52:56;9;9;6
73305;PMS5003;61530;51.158;0.880;2023-05-02T05:53:59;9;8;5
73305;PMS5003;61530;51.158;0.880;2023-05-02T05:55:03;8;8;6
73305;PMS5003;61530;51.158;0.880;2023-05-02T05:56:08;10;10;6
73305;PMS5003;61530;51.158;0.880;2023-05-02T05:57:12;10;8;6
73305;PMS5003;61530;51.158;0.880;2023-05-02T05:58:15;12;9;6
73305;PMS5003;61530;51.158;0.880;2023-05-02T05:59:19;10;9;5
73305;PMS5003;61530;51.158;0.880;2023-05-02T06:00:22;9;7;5
73305;PMS5003;61530;51.158;0.880;2023-05-02T06:01:28;12;10;7
73305;PMS5003;61530;51.158;0.880;2023-05-02T06:02:31;13;8;5
73305;PMS5003;61530;51.158;0.880;2023-05-02T06:03:35;15;15;6
73305;PMS5003;61530;51.158;0.880;2023-05-02T06:04:38;8;8;6
73305;PMS5003;61530;51.158;0.880;2023-05-02T06:05:44;9;7;5
73305;PMS5003;61530;51.158;0.880;2023-05-02T06:06:47;11;10;7
73305;PMS5003;61530;51.158;0.880;2023-05-02T06:07:51;10;10;6
73305;PMS5003;61530;51.158;0.880;2023-05-02T06:08:54;9;9;6
73305;PMS5003;61530;51.158;0.880;2023-05-02T06:10:00;8;8;6
73305;PMS5003;61530;51.158;0.880;2023-05-02T06:11:07;13;13;5
73305;PMS5003;61530;51.158;0.880;2023-05-02T06:12:07;11;9;5
73305;PMS5003;61530;51.158;0.880;2023-05-02T06:13:10;10;9;5
73305;PMS5003;61530;51.158;0.880;2023-05-02T06:14:16;14;10;5
73305;PMS5003;61530;51.158;0.880;2023-05-02T06:15:19;8;7;5
73305;PMS5003;61530;51.158;0.880;2023-05-02T06:16:23;9;8;5
73305;PMS5003;61530;51.158;0.880;2023-05-02T06:17:26;11;8;7
73305;PMS5003;61530;51.158;0.880;2023-05-02T06:18:32;9;8;5
73305;PMS5003;61530;51.158;0.880;2023-05-02T06:19:35;7;7;6
73305;PMS5003;61530;51.158;0.880;2023-05-02T06:20:39;13;8;5
73305;PMS5003;61530;51.158;0.880;2023-05-02T06:21:42;11;7;5
73305;PMS5003;61530;51.158;0.880;2023-05-02T06:22:48;11;10;5
73305;PMS5003;61530;51.158;0.880;2023-05-02T06:23:51;14;9;6
73305;PMS5003;61530;51.158;0.880;2023-05-02T06:24:55;10;7;5
73305;PMS5003;61530;51.158;0.880;2023-05-02T06:25:58;13;10;6
73305;PMS5003;61530;51.158;0.880;2023-05-02T06:27:04;8;8;4
73305;PMS5003;61530;51.158;0.880;2023-05-02T06:28:07;12;10;5
73305;PMS5003;61530;51.158;0.880;2023-05-02T06:29:11;9;8;5
73305;PMS5003;61530;51.158;0.880;2023-05-02T06:30:14;11;9;6
73305;PMS5003;61530;51.158;0.880;2023-05-02T06:31:20;12;10;6
73305;PMS5003;61530;51.158;0.880;2023-05-02T06:32:23;9;8;5
73305;PMS5003;61530;51.158;0.880;2023-05-02T06:33:27;9;8;5
73305;PMS5003;61530;51.158;0.880;2023-05-02T06:34:30;9;9;6
73305;PMS5003;61530;51.158;0.880;2023-05-02T06:35:36;7;7;5
73305;PMS5003;61530;51.158;0.880;2023-05-02T06:36:39;9;8;5
73305;PMS5003;61530;51.158;0.880;2023-05-02T06:37:43;8;8;5
73305;PMS5003;61530;51.158;0.880;2023-05-02T06:38:46;9;9;5
73305;PMS5003;61530;51.158;0.880;2023-05-02T06:39:52;8;8;5
73305;PMS5003;61530;51.158;0.880;2023-05-02T06:40:55;12;9;5
73305;PMS5003;61530;51.158;0.880;2023-05-02T06:41:59;9;8;5
73305;PMS5003;61530;51.158;0.880;2023-05-02T06:43:02;10;9;5
73305;PMS5003;61530;51.158;0.880;2023-05-02T06:44:08;16;11;7
73305;PMS5003;61530;51.158;0.880;2023-05-02T06:45:11;10;9;6
73305;PMS5003;61530;51.158;0.880;2023-05-02T06:46:15;10;8;5
73305;PMS5003;61530;51.158;0.880;2023-05-02T06:47:18;11;7;5
73305;PMS5003;61530;51.158;0.880;2023-05-02T06:48:24;9;8;5
73305;PMS5003;61530;51.158;0.880;2023-05-02T06:49:27;7;7;4
73305;PMS5003;61530;51.158;0.880;2023-05-02T06:50:31;21;16;7
73305;PMS5003;61530;51.158;0.880;2023-05-02T06:51:34;9;9;6
73305;PMS5003;61530;51.158;0.880;2023-05-02T06:52:40;8;8;5
73305;PMS5003;61530;51.158;0.880;2023-05-02T06:53:43;10;10;6
73305;PMS5003;61530;51.158;0.880;2023-05-02T06:54:47;8;7;6
73305;PMS5003;61530;51.158;0.880;2023-05-02T06:55:50;9;7;5
73305;PMS5003;61530;51.158;0.880;2023-05-02T06:56:56;13;10;6
73305;PMS5003;61530;51.158;0.880;2023-05-02T06:57:59;8;8;5
73305;PMS5003;61530;51.158;0.880;2023-05-02T06:59:03;9;9;5
73305;PMS5003;61530;51.158;0.880;2023-05-02T07:00:07;9;7;4
73305;PMS5003;61530;51.158;0.880;2023-05-02T07:01:12;7;7;4
73305;PMS5003;61530;51.158;0.880;2023-05-02T07:02:15;15;13;6
73305;PMS5003;61530;51.158;0.880;2023-05-02T07:03:19;8;8;4
73305;PMS5003;61530;51.158;0.880;2023-05-02T07:04:22;7;7;5
73305;PMS5003;61530;51.158;0.880;2023-05-02T07:05:28;9;7;4
73305;PMS5003;61530;51.158;0.880;2023-05-02T07:06:31;9;8;3